Time;durP1;ratioP1;P1;durP2;ratioP2;P2;SDS_P1;SDS_P2;PMS_P1;PMS_P2;Temp;Humidity;BMP_temperature;BMP_pressure;BME280_temperature;BME280_humidity;BME280_pressure;Samples;Min_cycle;Max_cycle;Signal;HPM_P1;HPM_P2
2024/04/12 00:02:56;;;;;;;;;;;14.80;99.90;;;;;;6687274;88;20073;-82
2024/04/12 00:12:57;;;;;;;;;;;14.80;99.90;;;;;;6663772;89;20068;-82
2024/04/12 00:22:57;;;;;;;;;;;14.70;99.90;;;;;;6644035;89;20087;-83
2024/04/12 00:33:00;;;;;;;;;;;14.60;99.90;;;;;;6652619;88;20054;-83
2024/04/12 00:43:12;;;;;;;;;;;14.60;99.90;;;;;;6644414;89;20225;-82
2024/04/12 00:53:13;;;;;;;;;;;14.50;99.90;;;;;;6658332;89;20156;-83
2024/04/12 01:03:15;;;;;;;;;;;14.40;99.90;;;;;;6650863;89;20087;-84
2024/04/12 01:13:15;;;;;;;;;;;14.00;99.90;;;;;;6654814;89;20494;-82
2024/04/12 01:23:17;;;;;;;;;;;13.70;99.90;;;;;;6645183;89;20054;-83
2024/04/12 01:33:17;;;;;;;;;;;13.70;99.90;;;;;;6646351;89;20071;-83
2024/04/12 01:43:18;;;;;;;;;;;13.50;99.90;;;;;;6666352;88;20141;-83
2024/04/12 01:53:21;;;;;;;;;;;13.30;99.90;;;;;;6721032;88;20071;-82
2024/04/12 02:03:28;;;;;;;;;;;13.20;99.90;;;;;;6717100;88;20098;-83
2024/04/12 02:13:35;;;;;;;;;;;13.00;99.90;;;;;;6681509;88;20057;-83
2024/04/12 02:23:37;;;;;;;;;;;12.80;99.90;;;;;;6658224;89;20202;-82
2024/04/12 02:33:37;;;;;;;;;;;12.40;99.90;;;;;;6656368;89;20124;-83
2024/04/12 02:43:38;;;;;;;;;;;12.20;99.90;;;;;;6658415;89;20293;-83
2024/04/12 02:53:42;;;;;;;;;;;11.90;99.90;;;;;;6657721;89;20074;-82
2024/04/12 03:14:45;;;;;;;;;;;11.90;99.90;;;;;;6631734;89;20127;-77
2024/04/12 03:24:45;;;;;;;;;;;12.20;99.90;;;;;;6677952;88;20196;-81
2024/04/12 03:34:49;;;;;;;;;;;12.20;99.90;;;;;;6682085;88;20131;-78
2024/04/12 03:44:49;;;;;;;;;;;12.20;99.90;;;;;;6664025;88;20072;-80
2024/04/12 03:55:08;;;;;;;;;;;12.40;99.90;;;;;;6662724;88;20074;-79
2024/04/12 04:05:15;;;;;;;;;;;12.40;99.90;;;;;;6663737;88;20130;-76
2024/04/12 04:15:15;;;;;;;;;;;12.40;99.90;;;;;;6659252;88;20211;-77
2024/04/12 04:25:19;;;;;;;;;;;12.50;99.90;;;;;;6649059;88;20166;-77
2024/04/12 04:35:19;;;;;;;;;;;12.30;99.90;;;;;;6653916;88;20553;-77
2024/04/12 04:45:21;;;;;;;;;;;12.20;99.90;;;;;;6657779;89;20053;-78
2024/04/12 04:55:22;;;;;;;;;;;12.30;99.90;;;;;;6680283;88;20074;-78
2024/04/12 05:05:27;;;;;;;;;;;12.40;99.90;;;;;;6667552;88;20080;-78
2024/04/12 05:25:40;;;;;;;;;;;12.40;99.90;;;;;;6669970;88;20197;-79
2024/04/12 05:35:41;;;;;;;;;;;12.50;99.90;;;;;;6669193;88;20060;-80
2024/04/12 05:45:42;;;;;;;;;;;12.70;99.90;;;;;;6675226;88;20046;-79
2024/04/12 05:55:52;;;;;;;;;;;12.80;99.90;;;;;;6674209;88;20088;-79
2024/04/12 06:05:56;;;;;;;;;;;12.80;99.90;;;;;;6680296;88;20077;-79
2024/04/12 06:15:58;;;;;;;;;;;12.90;99.90;;;;;;6697370;88;20061;-78
2024/04/12 06:25:58;;;;;;;;;;;13.00;99.90;;;;;;6680590;88;20073;-81
2024/04/12 06:36:06;;;;;;;;;;;13.10;99.90;;;;;;6683615;89;20065;-79
2024/04/12 06:46:11;;;;;;;;;;;13.20;99.90;;;;;;6687457;88;20086;-79
2024/04/12 06:56:15;;;;;;;;;;;13.20;99.90;;;;;;6695375;88;20057;-79
2024/04/12 07:06:16;;;;;;;;;;;13.20;99.90;;;;;;6682936;89;20097;-79
2024/04/12 07:16:18;;;;;;;;;;;13.20;99.90;;;;;;6677005;89;20065;-80
2024/04/12 07:26:25;;;;;;;;;;;13.40;99.90;;;;;;6693602;88;20053;-78
2024/04/12 07:36:30;;;;;;;;;;;13.60;99.90;;;;;;6694137;88;20100;-81
2024/04/12 07:46:33;;;;;;;;;;;13.70;99.90;;;;;;6683006;89;20045;-79
2024/04/12 07:56:37;;;;;;;;;;;13.80;99.90;;;;;;6702186;87;20137;-78
2024/04/12 08:16:47;;;;;;;;;;;14.40;99.90;;;;;;6683667;89;20053;-80
2024/04/12 08:26:51;;;;;;;;;;;14.60;99.90;;;;;;6684832;88;20193;-79
2024/04/12 08:36:52;;;;;;;;;;;14.70;99.90;;;;;;6681579;88;20093;-79
2024/04/12 08:46:53;;;;;;;;;;;15.00;99.90;;;;;;6682187;89;20030;-81
2024/04/12 09:06:58;;;;;;;;;;;16.00;99.90;;;;;;6653407;89;20089;-79
2024/04/12 09:17:06;;;;;;;;;;;16.50;99.90;;;;;;6652262;89;20133;-79
2024/04/12 09:27:09;;;;;;;;;;;16.80;99.90;;;;;;6652614;89;20171;-80
2024/04/12 09:37:29;;;;;;;;;;;16.90;99.90;;;;;;6652812;89;20065;-80
2024/04/12 10:39:00;;;;;;;;;;;18.60;99.90;;;;;;6635512;89;20622;-80
2024/04/12 10:49:00;;;;;;;;;;;18.90;99.90;;;;;;6636007;89;20087;-79
2024/04/12 10:59:05;;;;;;;;;;;19.80;99.90;;;;;;6636165;89;20470;-79
2024/04/12 11:09:06;;;;;;;;;;;19.90;99.90;;;;;;6635531;89;20073;-80
2024/04/12 11:39:48;;;;;;;;;;;19.60;99.90;;;;;;6639496;89;20518;-78
2024/04/12 11:49:57;;;;;;;;;;;19.60;99.90;;;;;;6637556;89;20196;-80
2024/04/12 12:00:08;;;;;;;;;;;19.60;99.90;;;;;;6638941;89;20169;-79
2024/04/12 12:10:09;;;;;;;;;;;19.70;99.90;;;;;;6647049;89;20372;-80
2024/04/12 12:20:09;;;;;;;;;;;19.70;99.90;;;;;;6652879;89;20333;-79
2024/04/12 12:30:18;;;;;;;;;;;19.40;99.90;;;;;;6652471;89;20936;-78
2024/04/12 12:40:21;;;;;;;;;;;19.40;99.90;;;;;;6636591;89;20175;-78
2024/04/12 12:50:23;;;;;;;;;;;19.00;99.90;;;;;;6636364;89;20103;-79
2024/04/12 13:00:23;;;;;;;;;;;19.20;99.90;;;;;;6652923;89;20443;-79
2024/04/12 13:10:24;;;;;;;;;;;19.30;99.90;;;;;;6653326;89;20123;-78
2024/04/12 13:20:24;;;;;;;;;;;19.30;99.90;;;;;;6643284;89;20135;-79
2024/04/12 13:30:25;;;;;;;;;;;19.40;99.90;;;;;;6635830;89;20090;-78
2024/04/12 13:40:25;;;;;;;;;;;19.50;99.90;;;;;;6634740;89;20069;-80
2024/04/12 14:00:48;;;;;;;;;;;19.60;99.90;;;;;;6635820;89;20089;-79
2024/04/12 14:10:49;;;;;;;;;;;20.00;99.90;;;;;;6639858;89;20078;-79
2024/04/12 14:20:49;;;;;;;;;;;20.20;99.90;;;;;;6636071;89;20148;-80
2024/04/12 14:30:51;;;;;;;;;;;21.20;99.90;;;;;;6635904;89;20117;-79
2024/04/12 14:40:52;;;;;;;;;;;20.60;99.90;;;;;;6636918;89;20079;-79
2024/04/12 14:50:53;;;;;;;;;;;20.30;99.90;;;;;;6640378;89;20070;-78
2024/04/12 15:53:18;;;;;;;;;;;22.20;99.90;;;;;;6631748;89;20112;-77
2024/04/12 16:13:37;;;;;;;;;;;21.30;99.90;;;;;;6640215;89;20066;-77
2024/04/12 16:23:38;;;;;;;;;;;21.40;99.90;;;;;;6633917;89;20522;-80
2024/04/12 16:33:38;;;;;;;;;;;21.30;99.90;;;;;;6632885;89;20181;-77
2024/04/12 16:43:39;;;;;;;;;;;21.10;99.90;;;;;;6633245;89;20085;-77
2024/04/12 16:53:41;;;;;;;;;;;20.60;99.90;;;;;;6635200;89;20105;-78
2024/04/12 17:03:42;;;;;;;;;;;20.10;99.90;;;;;;6659622;89;20621;-78
2024/04/12 17:13:43;;;;;;;;;;;20.00;99.90;;;;;;6669545;89;20497;-78
2024/04/12 17:23:45;;;;;;;;;;;19.80;99.90;;;;;;6670876;88;20052;-77
2024/04/12 17:33:47;;;;;;;;;;;19.70;99.90;;;;;;6665598;88;20530;-77
2024/04/12 17:43:47;;;;;;;;;;;19.60;99.90;;;;;;6665577;88;20071;-77
2024/04/12 17:53:48;;;;;;;;;;;19.30;99.90;;;;;;6664997;89;20081;-77
2024/04/12 18:03:49;;;;;;;;;;;18.90;99.90;;;;;;6665517;89;20194;-78
2024/04/12 18:13:49;;;;;;;;;;;18.60;99.90;;;;;;6663987;88;20089;-77
2024/04/12 18:23:50;;;;;;;;;;;18.50;99.90;;;;;;6662011;89;20589;-79
2024/04/12 18:33:53;;;;;;;;;;;18.20;99.90;;;;;;6715378;88;20550;-79
2024/04/12 18:54:12;;;;;;;;;;;17.90;99.90;;;;;;6662225;89;20162;-78
2024/04/12 19:04:13;;;;;;;;;;;17.60;99.90;;;;;;6662212;89;20090;-79
2024/04/12 19:14:13;;;;;;;;;;;17.20;99.90;;;;;;6647817;89;20557;-78
2024/04/12 19:24:14;;;;;;;;;;;17.00;99.90;;;;;;6653552;89;20061;-78
2024/04/12 19:34:14;;;;;;;;;;;16.80;99.90;;;;;;6649029;89;20111;-79
2024/04/12 19:44:15;;;;;;;;;;;17.00;99.90;;;;;;6668033;89;20541;-78
2024/04/12 19:54:15;;;;;;;;;;;17.00;99.90;;;;;;6712782;88;20094;-78
2024/04/12 20:04:16;;;;;;;;;;;17.00;99.90;;;;;;6651703;89;20665;-79
2024/04/12 20:14:17;;;;;;;;;;;16.80;99.90;;;;;;6649496;89;20075;-78
2024/04/12 20:24:27;;;;;;;;;;;16.70;99.90;;;;;;6643002;89;20083;-78
2024/04/12 20:35:07;;;;;;;;;;;16.80;99.90;;;;;;6676261;89;20050;-77
2024/04/12 20:45:07;;;;;;;;;;;16.70;99.90;;;;;;6670504;88;20139;-77
2024/04/12 20:55:08;;;;;;;;;;;16.60;99.90;;;;;;6666894;88;20107;-78
2024/04/12 21:15:11;;;;;;;;;;;16.50;99.90;;;;;;6737371;88;20620;-82
2024/04/12 21:25:12;;;;;;;;;;;16.20;99.90;;;;;;6739079;88;20086;-82
2024/04/12 21:35:13;;;;;;;;;;;16.30;99.90;;;;;;6737121;88;20062;-82
2024/04/12 21:45:13;;;;;;;;;;;16.30;99.90;;;;;;6739684;88;20048;-83
2024/04/12 21:55:15;;;;;;;;;;;16.30;99.90;;;;;;6739747;88;20058;-83
2024/04/12 22:05:16;;;;;;;;;;;16.30;99.90;;;;;;6738531;88;20030;-83
2024/04/12 22:15:16;;;;;;;;;;;16.20;99.90;;;;;;6744896;88;20076;-83
2024/04/12 22:25:17;;;;;;;;;;;15.90;99.90;;;;;;6742443;88;20039;-83
2024/04/12 22:35:18;;;;;;;;;;;15.40;99.90;;;;;;6751573;88;20042;-83
2024/04/12 22:45:18;;;;;;;;;;;15.00;99.90;;;;;;6714320;88;20138;-82
2024/04/12 22:55:20;;;;;;;;;;;14.80;99.90;;;;;;6725033;88;20081;-81
2024/04/12 23:05:20;;;;;;;;;;;14.70;99.90;;;;;;6745304;88;20650;-82
2024/04/12 23:15:21;;;;;;;;;;;14.50;99.90;;;;;;6750086;88;20065;-83
2024/04/12 23:25:21;;;;;;;;;;;14.30;99.90;;;;;;6755040;88;20587;-83
2024/04/12 23:35:21;;;;;;;;;;;14.20;99.90;;;;;;6751953;88;20085;-82
2024/04/12 23:45:22;;;;;;;;;;;14.00;99.90;;;;;;6755737;88;20058;-83
2024/04/12 23:55:22;;;;;;;;;;;13.80;99.90;;;;;;6754980;88;20157;-82
